Campanya meteocatpedra

Dades de l'estació automàtica l'Aldea

?
?
Resum diari 21:30 TU
Dades diàries de l'estació meteorològica
Temperatura mitjana 17.3 °C
Temperatura màxima 22.6 °C 13:48 TU
Temperatura mínima 12.8 °C 21:59 TU
Humitat relativa mitjana 61%
Precipitació acumulada 0.0 mm
Ratxa màxima del vent (2 m) 19.8 km/h - 327º 5:36 TU
Irradiació solar global 15.4 MJ/m2

El tram horari està expressat en Temps Universal (TU). Cal sumar una hora en horari d'hivern i dues en horari d'estiu per passar a l'hora oficial.

l'Aldea

Metadades estació meteorol´gica
Municipi L'Aldea
Comarca Baix Ebre
Altitud 62 m
Data alta 03.06.1991
Estat actual Operativa
Dades de període
Període
TU
TM
°C
TX
°C
TN
°C
HRM
%
PPT
mm
VVM (2 m)
km/h
DVM (2 m)
graus
VVX (2 m)
km/h
RS
W/m2
00:00 - 00:30 14.1 14.4 13.2 81 0.0 1.1 307 5.4 0
00:30 - 01:00 13.2 13.4 13.1 83 0.0 1.1 312 5.4 0
01:00 - 01:30 13.6 14.6 13.2 74 0.0 1.1 260 5.4 0
01:30 - 02:00 15.4 15.7 14.7 57 0.0 4.0 317 12.6 0
02:00 - 02:30 15.4 15.8 15.2 55 0.0 4.7 337 12.6 0
02:30 - 03:00 15.5 15.6 15.5 54 0.0 4.7 334 13.7 0
03:00 - 03:30 15.8 16.0 15.4 52 0.0 6.1 337 14.8 0
03:30 - 04:00 15.9 15.9 15.6 52 0.0 5.4 329 17.6 0
04:00 - 04:30 15.7 15.8 15.6 52 0.0 5.8 328 16.6 0
04:30 - 05:00 15.6 15.7 15.4 52 0.0 4.3 335 13.0 0
05:00 - 05:30 15.6 15.9 15.5 52 0.0 4.7 332 16.9 0
05:30 - 06:00 15.7 15.7 15.5 53 0.0 5.8 335 19.8 0
06:00 - 06:30 15.5 15.9 15.1 54 0.0 3.2 38 15.1 5
06:30 - 07:00 15.5 15.7 15.4 55 0.0 1.8 151 11.2 55
07:00 - 07:30 16.5 17.4 15.7 53 0.0 2.2 164 10.8 143
07:30 - 08:00 17.9 18.3 17.5 50 0.0 1.4 190 8.3 240
08:00 - 08:30 18.6 19.0 18.1 48 0.0 2.2 160 8.3 332
08:30 - 09:00 19.0 19.4 18.7 48 0.0 3.2 353 13.0 416
09:00 - 09:30 19.3 19.6 19.0 48 0.0 3.6 331 13.3 489
09:30 - 10:00 19.7 19.9 19.5 48 0.0 5.4 346 12.6 551
10:00 - 10:30 20.4 20.7 19.9 46 0.0 5.0 351 15.1 600
10:30 - 11:00 21.2 21.7 20.7 43 0.0 3.2 340 9.7 632
11:00 - 11:30 21.9 22.4 21.5 42 0.0 2.5 319 10.1 653
11:30 - 12:00 21.8 22.5 21.5 48 0.0 2.2 165 9.0 654
12:00 - 12:30 21.5 21.8 21.2 50 0.0 3.2 133 9.4 644
12:30 - 13:00 21.8 22.0 21.6 48 0.0 4.0 134 10.1 617
13:00 - 13:30 21.9 22.1 21.6 47 0.0 4.0 151 10.8 578
13:30 - 14:00 22.2 22.6 21.7 48 0.0 4.0 151 10.4 524
14:00 - 14:30 21.8 22.1 21.4 51 0.0 5.4 162 13.7 457
14:30 - 15:00 21.4 21.6 21.1 52 0.0 5.4 172 11.5 379
15:00 - 15:30 21.1 21.2 20.8 56 0.0 4.0 168 10.4 281
15:30 - 16:00 20.5 20.8 20.1 57 0.0 3.2 140 7.6 200
16:00 - 16:30 19.7 20.1 19.3 54 0.0 2.9 163 6.5 66
16:30 - 17:00 18.8 19.3 18.1 63 0.0 1.1 177 6.1 17
17:00 - 17:30 17.0 18.0 16.0 75 0.0 0.4 316 2.2 2
17:30 - 18:00 15.7 15.9 15.4 82 0.0 1.4 314 4.3 0
18:00 - 18:30 15.0 15.4 14.6 84 0.0 1.1 313 2.9 0
18:30 - 19:00 14.4 14.6 14.2 86 0.0 1.4 320 4.7 0
19:00 - 19:30 14.1 14.2 13.9 86 0.0 1.1 315 5.0 0
19:30 - 20:00 13.6 13.8 13.4 88 0.0 0.4 307 3.6 0
20:00 - 20:30 13.9 14.1 13.8 86 0.0 1.4 299 5.4 0
20:30 - 21:00 13.8 14.0 13.5 86 0.0 1.4 295 4.3 0
21:00 - 21:30 13.2 13.5 12.9 88 0.0 1.8 278 5.8 0
21:30 - 22:00 12.9 13.0 12.8 93 0.0 1.8 277 5.0 0

Les dades en taronja només han passat un control de qualitat automàtic. Resta pendent la seva validació definitiva.